sensor_id;sensor_type;location;lat;lon;timestamp;temperature;humidity
35645;DHT22;21764;52.042;6.830;2023-03-24T00:02:59;11.80;99.90
35645;DHT22;21764;52.042;6.830;2023-03-24T00:08:01;11.80;99.90
35645;DHT22;21764;52.042;6.830;2023-03-24T00:13:03;11.60;99.90
35645;DHT22;21764;52.042;6.830;2023-03-24T00:18:03;11.70;99.90
35645;DHT22;21764;52.042;6.830;2023-03-24T00:23:05;11.70;99.90
35645;DHT22;21764;52.042;6.830;2023-03-24T00:28:06;11.80;99.90
35645;DHT22;21764;52.042;6.830;2023-03-24T00:33:07;11.80;99.90
35645;DHT22;21764;52.042;6.830;2023-03-24T00:38:09;11.90;99.90
35645;DHT22;21764;52.042;6.830;2023-03-24T00:43:09;11.80;99.90
35645;DHT22;21764;52.042;6.830;2023-03-24T00:48:16;11.90;99.90
35645;DHT22;21764;52.042;6.830;2023-03-24T00:53:17;11.90;99.90
35645;DHT22;21764;52.042;6.830;2023-03-24T00:58:18;11.70;99.90
35645;DHT22;21764;52.042;6.830;2023-03-24T01:03:22;11.80;99.90
35645;DHT22;21764;52.042;6.830;2023-03-24T01:08:26;11.70;99.90
35645;DHT22;21764;52.042;6.830;2023-03-24T01:13:28;11.90;99.90
35645;DHT22;21764;52.042;6.830;2023-03-24T01:18:29;11.90;99.90
35645;DHT22;21764;52.042;6.830;2023-03-24T01:23:30;12.00;99.90
35645;DHT22;21764;52.042;6.830;2023-03-24T01:28:31;12.10;99.90
35645;DHT22;21764;52.042;6.830;2023-03-24T01:33:31;12.10;99.90
35645;DHT22;21764;52.042;6.830;2023-03-24T01:38:34;12.10;99.90
35645;DHT22;21764;52.042;6.830;2023-03-24T01:43:35;12.10;99.90
35645;DHT22;21764;52.042;6.830;2023-03-24T01:53:58;12.20;99.90
35645;DHT22;21764;52.042;6.830;2023-03-24T01:59:02;12.20;99.90
35645;DHT22;21764;52.042;6.830;2023-03-24T02:04:05;12.30;99.90
35645;DHT22;21764;52.042;6.830;2023-03-24T02:09:08;12.30;99.90
35645;DHT22;21764;52.042;6.830;2023-03-24T02:14:10;12.40;99.90
35645;DHT22;21764;52.042;6.830;2023-03-24T02:51:24;12.20;99.90
35645;DHT22;21764;52.042;6.830;2023-03-24T03:01:48;12.20;99.90
35645;DHT22;21764;52.042;6.830;2023-03-24T03:06:56;12.20;99.90
35645;DHT22;21764;52.042;6.830;2023-03-24T03:11:59;12.20;99.90
35645;DHT22;21764;52.042;6.830;2023-03-24T03:17:17;12.30;99.90
35645;DHT22;21764;52.042;6.830;2023-03-24T03:22:24;12.30;99.90
35645;DHT22;21764;52.042;6.830;2023-03-24T03:27:29;12.40;99.90
35645;DHT22;21764;52.042;6.830;2023-03-24T03:32:42;12.40;99.90
35645;DHT22;21764;52.042;6.830;2023-03-24T03:42:51;12.30;99.90
35645;DHT22;21764;52.042;6.830;2023-03-24T03:47:51;12.30;99.90
35645;DHT22;21764;52.042;6.830;2023-03-24T03:52:53;12.30;99.90
35645;DHT22;21764;52.042;6.830;2023-03-24T03:57:54;12.40;99.90
35645;DHT22;21764;52.042;6.830;2023-03-24T04:09:36;12.50;99.90
35645;DHT22;21764;52.042;6.830;2023-03-24T04:24:47;12.50;99.90
35645;DHT22;21764;52.042;6.830;2023-03-24T04:34:56;12.20;99.90
35645;DHT22;21764;52.042;6.830;2023-03-24T04:40:04;11.90;99.90
35645;DHT22;21764;52.042;6.830;2023-03-24T04:45:07;11.70;99.90
35645;DHT22;21764;52.042;6.830;2023-03-24T04:50:11;11.30;99.90
35645;DHT22;21764;52.042;6.830;2023-03-24T05:00:39;10.70;99.90
35645;DHT22;21764;52.042;6.830;2023-03-24T05:05:45;10.60;99.90
35645;DHT22;21764;52.042;6.830;2023-03-24T05:10:47;10.60;99.90
35645;DHT22;21764;52.042;6.830;2023-03-24T05:15:48;10.50;99.90
35645;DHT22;21764;52.042;6.830;2023-03-24T05:20:49;10.40;99.90
35645;DHT22;21764;52.042;6.830;2023-03-24T05:25:49;10.20;99.90
35645;DHT22;21764;52.042;6.830;2023-03-24T05:30:50;10.30;99.90
35645;DHT22;21764;52.042;6.830;2023-03-24T05:35:51;10.50;99.90
35645;DHT22;21764;52.042;6.830;2023-03-24T05:40:55;10.70;99.90
35645;DHT22;21764;52.042;6.830;2023-03-24T05:45:56;10.80;99.90
35645;DHT22;21764;52.042;6.830;2023-03-24T05:50:59;10.80;99.90
35645;DHT22;21764;52.042;6.830;2023-03-24T05:56:00;10.70;99.90
35645;DHT22;21764;52.042;6.830;2023-03-24T06:01:06;10.70;99.90
35645;DHT22;21764;52.042;6.830;2023-03-24T06:06:08;10.70;99.90
35645;DHT22;21764;52.042;6.830;2023-03-24T06:11:09;10.80;99.90
35645;DHT22;21764;52.042;6.830;2023-03-24T06:16:10;10.90;99.90
35645;DHT22;21764;52.042;6.830;2023-03-24T06:21:10;11.00;99.90
35645;DHT22;21764;52.042;6.830;2023-03-24T06:26:13;11.10;99.90
35645;DHT22;21764;52.042;6.830;2023-03-24T06:31:14;11.30;99.90
35645;DHT22;21764;52.042;6.830;2023-03-24T06:36:19;11.40;99.90
35645;DHT22;21764;52.042;6.830;2023-03-24T06:41:20;11.30;99.90
35645;DHT22;21764;52.042;6.830;2023-03-24T06:46:21;11.60;99.90
35645;DHT22;21764;52.042;6.830;2023-03-24T06:51:22;12.30;99.90
35645;DHT22;21764;52.042;6.830;2023-03-24T06:56:23;12.10;99.90
35645;DHT22;21764;52.042;6.830;2023-03-24T07:01:24;12.00;99.90
35645;DHT22;21764;52.042;6.830;2023-03-24T07:06:25;11.90;99.90
35645;DHT22;21764;52.042;6.830;2023-03-24T07:11:25;12.30;99.90
35645;DHT22;21764;52.042;6.830;2023-03-24T07:16:26;12.90;99.90
35645;DHT22;21764;52.042;6.830;2023-03-24T07:21:27;14.00;99.90
35645;DHT22;21764;52.042;6.830;2023-03-24T07:26:27;13.40;99.90
35645;DHT22;21764;52.042;6.830;2023-03-24T07:31:28;13.00;99.90
35645;DHT22;21764;52.042;6.830;2023-03-24T07:36:32;13.40;99.90
35645;DHT22;21764;52.042;6.830;2023-03-24T07:41:32;13.50;99.90
35645;DHT22;21764;52.042;6.830;2023-03-24T07:46:34;14.30;99.90
35645;DHT22;21764;52.042;6.830;2023-03-24T07:51:34;15.00;99.90
35645;DHT22;21764;52.042;6.830;2023-03-24T07:56:35;14.30;99.90
35645;DHT22;21764;52.042;6.830;2023-03-24T08:01:36;13.60;99.90
35645;DHT22;21764;52.042;6.830;2023-03-24T08:06:37;13.20;99.90
35645;DHT22;21764;52.042;6.830;2023-03-24T08:11:38;13.40;99.90
35645;DHT22;21764;52.042;6.830;2023-03-24T08:16:39;13.30;99.90
35645;DHT22;21764;52.042;6.830;2023-03-24T08:21:39;13.30;99.90
35645;DHT22;21764;52.042;6.830;2023-03-24T08:26:40;13.80;99.90
35645;DHT22;21764;52.042;6.830;2023-03-24T08:31:42;14.40;99.90
35645;DHT22;21764;52.042;6.830;2023-03-24T08:36:42;14.50;99.90
35645;DHT22;21764;52.042;6.830;2023-03-24T08:41:43;15.60;99.90
35645;DHT22;21764;52.042;6.830;2023-03-24T08:46:44;19.30;99.90
35645;DHT22;21764;52.042;6.830;2023-03-24T08:51:45;17.50;99.90
35645;DHT22;21764;52.042;6.830;2023-03-24T08:56:46;23.60;98.90
35645;DHT22;21764;52.042;6.830;2023-03-24T09:01:47;24.20;95.70
35645;DHT22;21764;52.042;6.830;2023-03-24T09:06:48;23.70;95.40
35645;DHT22;21764;52.042;6.830;2023-03-24T09:11:49;27.60;89.70
35645;DHT22;21764;52.042;6.830;2023-03-24T09:16:49;20.80;95.30
35645;DHT22;21764;52.042;6.830;2023-03-24T09:21:50;20.20;97.30
35645;DHT22;21764;52.042;6.830;2023-03-24T09:26:51;18.20;99.60
35645;DHT22;21764;52.042;6.830;2023-03-24T09:31:51;16.60;99.90
35645;DHT22;21764;52.042;6.830;2023-03-24T09:36:53;15.30;99.90
35645;DHT22;21764;52.042;6.830;2023-03-24T09:41:54;18.90;99.90
35645;DHT22;21764;52.042;6.830;2023-03-24T09:47:24;20.90;95.40
35645;DHT22;21764;52.042;6.830;2023-03-24T09:52:34;18.00;99.50
35645;DHT22;21764;52.042;6.830;2023-03-24T09:57:38;16.80;99.90
35645;DHT22;21764;52.042;6.830;2023-03-24T10:02:39;19.00;99.20
35645;DHT22;21764;52.042;6.830;2023-03-24T10:07:51;20.40;95.80
35645;DHT22;21764;52.042;6.830;2023-03-24T10:13:14;17.50;99.30
35645;DHT22;21764;52.042;6.830;2023-03-24T10:18:44;17.00;99.60
35645;DHT22;21764;52.042;6.830;2023-03-24T10:24:05;15.90;99.90
35645;DHT22;21764;52.042;6.830;2023-03-24T10:34:27;14.80;99.90
35645;DHT22;21764;52.042;6.830;2023-03-24T10:39:30;14.70;99.90
35645;DHT22;21764;52.042;6.830;2023-03-24T10:44:32;14.30;99.90
35645;DHT22;21764;52.042;6.830;2023-03-24T10:49:33;14.40;99.90
35645;DHT22;21764;52.042;6.830;2023-03-24T10:54:34;14.80;99.90
35645;DHT22;21764;52.042;6.830;2023-03-24T10:59:54;15.40;99.90
35645;DHT22;21764;52.042;6.830;2023-03-24T11:05:16;18.20;99.90
35645;DHT22;21764;52.042;6.830;2023-03-24T11:10:23;17.00;99.90
35645;DHT22;21764;52.042;6.830;2023-03-24T11:15:30;16.80;99.90
35645;DHT22;21764;52.042;6.830;2023-03-24T11:20:39;15.70;99.90
35645;DHT22;21764;52.042;6.830;2023-03-24T11:25:44;15.20;99.90
35645;DHT22;21764;52.042;6.830;2023-03-24T11:30:49;15.20;99.90
35645;DHT22;21764;52.042;6.830;2023-03-24T11:35:51;14.60;99.90
35645;DHT22;21764;52.042;6.830;2023-03-24T11:40:58;14.20;99.90
35645;DHT22;21764;52.042;6.830;2023-03-24T11:46:02;14.20;99.90
35645;DHT22;21764;52.042;6.830;2023-03-24T11:51:05;14.00;99.90
35645;DHT22;21764;52.042;6.830;2023-03-24T11:56:16;14.30;99.90
35645;DHT22;21764;52.042;6.830;2023-03-24T12:01:24;15.20;99.90
35645;DHT22;21764;52.042;6.830;2023-03-24T12:06:41;14.30;99.90
35645;DHT22;21764;52.042;6.830;2023-03-24T12:11:50;13.60;99.90
35645;DHT22;21764;52.042;6.830;2023-03-24T12:17:02;13.70;99.90
35645;DHT22;21764;52.042;6.830;2023-03-24T12:22:41;14.50;99.90
35645;DHT22;21764;52.042;6.830;2023-03-24T12:27:59;14.60;99.90
35645;DHT22;21764;52.042;6.830;2023-03-24T13:00:05;14.40;99.90
35645;DHT22;21764;52.042;6.830;2023-03-24T13:05:19;13.70;99.90
35645;DHT22;21764;52.042;6.830;2023-03-24T13:10:27;13.00;99.90
35645;DHT22;21764;52.042;6.830;2023-03-24T13:15:48;12.40;99.90
35645;DHT22;21764;52.042;6.830;2023-03-24T13:21:05;11.90;99.90
35645;DHT22;21764;52.042;6.830;2023-03-24T13:26:22;11.60;99.90
35645;DHT22;21764;52.042;6.830;2023-03-24T13:31:25;11.50;99.90
35645;DHT22;21764;52.042;6.830;2023-03-24T13:36:33;11.60;99.90
35645;DHT22;21764;52.042;6.830;2023-03-24T13:41:37;11.60;99.90
35645;DHT22;21764;52.042;6.830;2023-03-24T13:46:40;12.00;99.90
35645;DHT22;21764;52.042;6.830;2023-03-24T13:51:45;12.70;99.90
35645;DHT22;21764;52.042;6.830;2023-03-24T13:56:53;13.00;99.90
35645;DHT22;21764;52.042;6.830;2023-03-24T14:02:19;14.10;99.90
35645;DHT22;21764;52.042;6.830;2023-03-24T14:07:43;14.10;99.90
35645;DHT22;21764;52.042;6.830;2023-03-24T14:23:45;13.90;99.90
35645;DHT22;21764;52.042;6.830;2023-03-24T14:28:53;13.90;99.90
35645;DHT22;21764;52.042;6.830;2023-03-24T14:39:31;13.80;99.90
35645;DHT22;21764;52.042;6.830;2023-03-24T14:49:53;13.20;99.90
35645;DHT22;21764;52.042;6.830;2023-03-24T15:00:05;12.70;99.90
35645;DHT22;21764;52.042;6.830;2023-03-24T15:10:56;11.80;99.90
35645;DHT22;21764;52.042;6.830;2023-03-24T15:16:26;11.90;99.90
35645;DHT22;21764;52.042;6.830;2023-03-24T15:21:36;12.00;99.90
35645;DHT22;21764;52.042;6.830;2023-03-24T15:26:37;12.00;99.90
35645;DHT22;21764;52.042;6.830;2023-03-24T15:31:38;11.80;99.90
35645;DHT22;21764;52.042;6.830;2023-03-24T15:36:40;11.70;99.90
35645;DHT22;21764;52.042;6.830;2023-03-24T15:41:44;11.50;99.90
35645;DHT22;21764;52.042;6.830;2023-03-24T15:46:46;11.40;99.90
35645;DHT22;21764;52.042;6.830;2023-03-24T15:51:55;11.10;99.90
35645;DHT22;21764;52.042;6.830;2023-03-24T16:02:04;12.20;99.90
35645;DHT22;21764;52.042;6.830;2023-03-24T16:07:21;13.00;99.90
35645;DHT22;21764;52.042;6.830;2023-03-24T16:12:29;13.10;99.90
35645;DHT22;21764;52.042;6.830;2023-03-24T16:17:33;13.00;99.90
35645;DHT22;21764;52.042;6.830;2023-03-24T16:22:33;12.50;99.90
35645;DHT22;21764;52.042;6.830;2023-03-24T16:27:35;12.20;99.90
35645;DHT22;21764;52.042;6.830;2023-03-24T16:32:35;12.10;99.90
35645;DHT22;21764;52.042;6.830;2023-03-24T16:37:36;12.00;99.90
35645;DHT22;21764;52.042;6.830;2023-03-24T16:42:36;12.00;99.90
35645;DHT22;21764;52.042;6.830;2023-03-24T16:47:37;12.00;99.90
35645;DHT22;21764;52.042;6.830;2023-03-24T16:52:38;11.80;99.90
35645;DHT22;21764;52.042;6.830;2023-03-24T16:57:38;11.70;99.90
35645;DHT22;21764;52.042;6.830;2023-03-24T17:02:39;11.60;99.90
35645;DHT22;21764;52.042;6.830;2023-03-24T17:07:44;11.30;99.90
35645;DHT22;21764;52.042;6.830;2023-03-24T17:12:45;11.00;99.90
35645;DHT22;21764;52.042;6.830;2023-03-24T17:17:46;10.80;99.90
35645;DHT22;21764;52.042;6.830;2023-03-24T17:22:49;10.80;99.90
35645;DHT22;21764;52.042;6.830;2023-03-24T17:27:50;10.50;99.90
35645;DHT22;21764;52.042;6.830;2023-03-24T17:32:51;10.30;99.90
35645;DHT22;21764;52.042;6.830;2023-03-24T17:37:54;10.10;99.90
35645;DHT22;21764;52.042;6.830;2023-03-24T17:42:54;10.00;99.90
35645;DHT22;21764;52.042;6.830;2023-03-24T17:47:55;9.80;99.90
35645;DHT22;21764;52.042;6.830;2023-03-24T17:52:56;9.60;99.90
35645;DHT22;21764;52.042;6.830;2023-03-24T17:57:56;9.40;99.90
35645;DHT22;21764;52.042;6.830;2023-03-24T18:02:57;9.30;99.90
35645;DHT22;21764;52.042;6.830;2023-03-24T18:07:58;9.40;99.90
35645;DHT22;21764;52.042;6.830;2023-03-24T18:12:59;9.30;99.90
35645;DHT22;21764;52.042;6.830;2023-03-24T18:18:01;9.10;99.90
35645;DHT22;21764;52.042;6.830;2023-03-24T18:23:02;9.10;99.90
35645;DHT22;21764;52.042;6.830;2023-03-24T18:28:03;9.30;99.90
35645;DHT22;21764;52.042;6.830;2023-03-24T18:33:05;9.50;99.90
35645;DHT22;21764;52.042;6.830;2023-03-24T18:38:06;9.50;99.90
35645;DHT22;21764;52.042;6.830;2023-03-24T18:43:08;9.50;99.90
35645;DHT22;21764;52.042;6.830;2023-03-24T18:48:08;9.60;99.90
35645;DHT22;21764;52.042;6.830;2023-03-24T18:53:11;9.80;99.90
35645;DHT22;21764;52.042;6.830;2023-03-24T18:58:13;9.90;99.90
35645;DHT22;21764;52.042;6.830;2023-03-24T19:03:16;9.90;99.90
35645;DHT22;21764;52.042;6.830;2023-03-24T19:08:17;9.80;99.90
35645;DHT22;21764;52.042;6.830;2023-03-24T19:13:17;9.80;99.90
35645;DHT22;21764;52.042;6.830;2023-03-24T19:18:18;10.00;99.90
35645;DHT22;21764;52.042;6.830;2023-03-24T19:23:18;10.20;99.90
35645;DHT22;21764;52.042;6.830;2023-03-24T19:28:21;10.10;99.90
35645;DHT22;21764;52.042;6.830;2023-03-24T19:33:22;10.10;99.90
35645;DHT22;21764;52.042;6.830;2023-03-24T19:38:23;10.20;99.90
35645;DHT22;21764;52.042;6.830;2023-03-24T19:43:24;10.30;99.90
35645;DHT22;21764;52.042;6.830;2023-03-24T19:48:24;10.20;99.90
35645;DHT22;21764;52.042;6.830;2023-03-24T19:53:27;10.20;99.90
35645;DHT22;21764;52.042;6.830;2023-03-24T19:58:27;10.10;99.90
35645;DHT22;21764;52.042;6.830;2023-03-24T20:03:28;10.20;99.90
35645;DHT22;21764;52.042;6.830;2023-03-24T20:08:29;10.30;99.90
35645;DHT22;21764;52.042;6.830;2023-03-24T20:13:30;10.20;99.90
35645;DHT22;21764;52.042;6.830;2023-03-24T20:18:30;9.80;99.90
35645;DHT22;21764;52.042;6.830;2023-03-24T20:23:32;9.60;99.90
35645;DHT22;21764;52.042;6.830;2023-03-24T20:28:33;9.40;99.90
35645;DHT22;21764;52.042;6.830;2023-03-24T20:33:34;9.40;99.90
35645;DHT22;21764;52.042;6.830;2023-03-24T20:38:35;9.30;99.90
35645;DHT22;21764;52.042;6.830;2023-03-24T20:43:36;9.10;99.90
35645;DHT22;21764;52.042;6.830;2023-03-24T20:48:37;9.00;99.90
35645;DHT22;21764;52.042;6.830;2023-03-24T20:53:38;8.90;99.90
35645;DHT22;21764;52.042;6.830;2023-03-24T20:58:41;8.90;99.90
35645;DHT22;21764;52.042;6.830;2023-03-24T21:03:42;8.80;99.90
35645;DHT22;21764;52.042;6.830;2023-03-24T21:08:43;8.80;99.90
35645;DHT22;21764;52.042;6.830;2023-03-24T21:13:44;8.70;99.90
35645;DHT22;21764;52.042;6.830;2023-03-24T21:18:46;8.80;99.90
35645;DHT22;21764;52.042;6.830;2023-03-24T21:23:47;8.80;99.90
35645;DHT22;21764;52.042;6.830;2023-03-24T21:28:48;8.70;99.90
35645;DHT22;21764;52.042;6.830;2023-03-24T21:33:51;8.60;99.90
35645;DHT22;21764;52.042;6.830;2023-03-24T21:38:52;8.60;99.90
35645;DHT22;21764;52.042;6.830;2023-03-24T21:43:53;8.60;99.90
35645;DHT22;21764;52.042;6.830;2023-03-24T21:48:54;8.80;99.90
35645;DHT22;21764;52.042;6.830;2023-03-24T21:53:58;8.80;99.90
35645;DHT22;21764;52.042;6.830;2023-03-24T21:59:02;8.90;99.90
35645;DHT22;21764;52.042;6.830;2023-03-24T22:04:04;8.90;99.90
35645;DHT22;21764;52.042;6.830;2023-03-24T22:09:06;8.90;99.90
35645;DHT22;21764;52.042;6.830;2023-03-24T22:14:09;9.00;99.90
35645;DHT22;21764;52.042;6.830;2023-03-24T22:19:11;8.90;99.90
35645;DHT22;21764;52.042;6.830;2023-03-24T22:24:12;8.80;99.90
35645;DHT22;21764;52.042;6.830;2023-03-24T22:29:13;8.90;99.90
35645;DHT22;21764;52.042;6.830;2023-03-24T22:34:13;9.00;99.90
35645;DHT22;21764;52.042;6.830;2023-03-24T22:39:14;9.00;99.90
35645;DHT22;21764;52.042;6.830;2023-03-24T22:44:14;9.00;99.90
35645;DHT22;21764;52.042;6.830;2023-03-24T22:49:15;8.90;99.90
35645;DHT22;21764;52.042;6.830;2023-03-24T22:54:17;8.80;99.90
35645;DHT22;21764;52.042;6.830;2023-03-24T22:59:18;8.90;99.90
35645;DHT22;21764;52.042;6.830;2023-03-24T23:04:19;9.20;99.90
35645;DHT22;21764;52.042;6.830;2023-03-24T23:09:20;9.30;99.90
35645;DHT22;21764;52.042;6.830;2023-03-24T23:14:21;9.30;99.90
35645;DHT22;21764;52.042;6.830;2023-03-24T23:19:21;9.30;99.90
35645;DHT22;21764;52.042;6.830;2023-03-24T23:24:22;9.30;99.90
35645;DHT22;21764;52.042;6.830;2023-03-24T23:29:23;9.30;99.90
35645;DHT22;21764;52.042;6.830;2023-03-24T23:34:23;9.20;99.90
35645;DHT22;21764;52.042;6.830;2023-03-24T23:39:25;9.10;99.90
35645;DHT22;21764;52.042;6.830;2023-03-24T23:44:25;9.10;99.90
35645;DHT22;21764;52.042;6.830;2023-03-24T23:49:26;9.30;99.90
35645;DHT22;21764;52.042;6.830;2023-03-24T23:54:28;9.30;99.90
35645;DHT22;21764;52.042;6.830;2023-03-24T23:59:29;9.30;99.90
